Time;durP1;ratioP1;P1;durP2;ratioP2;P2;SDS_P1;SDS_P2;PMS_P1;PMS_P2;Temp;Humidity;BMP_temperature;BMP_pressure;BME280_temperature;BME280_humidity;BME280_pressure;Samples;Min_cycle;Max_cycle;Signal;HPM_P1;HPM_P2
2022/01/23 00:00:55;;;;;;;7.30;6.63;;;;;;;;;;6070100;29;20231;-64
2022/01/23 00:04:16;;;;;;;8.60;7.90;;;;;;;;;;6075525;28;20244;-63
2022/01/23 00:07:39;;;;;;;6.60;6.00;;;;;;;;;;6081687;29;20252;-64
2022/01/23 00:11:01;;;;;;;6.60;6.00;;;;;;;;;;6086225;28;20232;-65
2022/01/23 00:17:59;;;;;;;10.97;6.77;;;;;;;;;;6064336;28;20657;-63
2022/01/23 00:21:20;;;;;;;7.23;5.83;;;;;;;;;;6083210;29;20325;-64
2022/01/23 00:31:59;;;;;;;7.03;6.33;;;;;;;;;;6079575;29;20240;-65
2022/01/23 00:35:20;;;;;;;8.17;7.37;;;;;;;;;;6089163;29;20296;-64
2022/01/23 00:38:41;;;;;;;8.00;7.10;;;;;;;;;;6082605;29;20734;-64
2022/01/23 00:42:01;;;;;;;6.87;6.23;;;;;;;;;;6076200;29;20248;-65
2022/01/23 00:45:29;;;;;;;7.87;6.73;;;;;;;;;;6080629;29;20232;-65
2022/01/23 00:49:13;;;;;;;7.03;6.43;;;;;;;;;;6082238;29;20931;-64
2022/01/23 00:52:32;;;;;;;6.50;5.90;;;;;;;;;;6058765;29;20269;-63
2022/01/23 00:55:53;;;;;;;7.50;6.63;;;;;;;;;;6072468;29;20237;-65
2022/01/23 00:59:14;;;;;;;8.43;6.43;;;;;;;;;;6072526;28;20228;-65
2022/01/23 01:02:36;;;;;;;8.00;7.20;;;;;;;;;;6080143;29;20241;-63
2022/01/23 01:05:57;;;;;;;8.80;7.83;;;;;;;;;;6073281;29;20229;-64
2022/01/23 01:09:18;;;;;;;10.27;9.17;;;;;;;;;;6065857;29;20237;-64
2022/01/23 01:12:42;;;;;;;8.30;7.50;;;;;;;;;;6083324;29;20618;-64
2022/01/23 01:16:34;;;;;;;7.00;6.30;;;;;;;;;;6076442;28;20255;-64
2022/01/23 01:30:59;;;;;;;5.90;5.40;;;;;;;;;;6085890;29;20236;-65
2022/01/23 01:34:25;;;;;;;6.13;5.53;;;;;;;;;;6095042;29;20243;-64
2022/01/23 01:37:48;;;;;;;5.93;5.40;;;;;;;;;;6097533;29;20646;-66
2022/01/23 01:41:08;;;;;;;8.40;5.97;;;;;;;;;;6095365;29;21046;-65
2022/01/23 01:44:29;;;;;;;8.47;5.57;;;;;;;;;;6098714;29;20232;-64
2022/01/23 01:48:14;;;;;;;6.03;5.43;;;;;;;;;;6076928;29;20630;-65
2022/01/23 01:51:35;;;;;;;4.00;3.70;;;;;;;;;;6100884;28;20233;-64
2022/01/23 01:55:12;;;;;;;4.60;4.10;;;;;;;;;;6084096;29;20330;-65
2022/01/23 01:59:11;;;;;;;4.90;4.50;;;;;;;;;;6080093;29;20236;-65
2022/01/23 02:03:07;;;;;;;3.90;3.57;;;;;;;;;;6084671;29;22461;-64
2022/01/23 02:10:21;;;;;;;5.27;4.87;;;;;;;;;;6096223;29;20232;-63
2022/01/23 02:13:47;;;;;;;4.43;4.03;;;;;;;;;;6083961;29;20232;-64
2022/01/23 02:17:26;;;;;;;4.57;4.17;;;;;;;;;;6065402;29;20645;-64
2022/01/23 02:54:05;;;;;;;6.97;6.27;;;;;;;;;;6093902;28;20224;-64
2022/01/23 02:57:39;;;;;;;7.17;6.33;;;;;;;;;;6097574;29;20260;-64
2022/01/23 03:01:10;;;;;;;8.53;6.83;;;;;;;;;;6090082;29;20739;-65
2022/01/23 03:05:04;;;;;;;7.37;6.40;;;;;;;;;;6088384;29;20237;-65
2022/01/23 03:08:55;;;;;;;7.20;6.60;;;;;;;;;;6071562;29;20241;-65
2022/01/23 03:13:01;;;;;;;6.43;5.83;;;;;;;;;;6067677;29;20225;-64
2022/01/23 03:16:17;;;;;;;8.17;6.40;;;;;;;;;;6054418;29;20271;-64
2022/01/23 03:27:14;;;;;;;6.13;5.53;;;;;;;;;;6080569;29;20642;-65
2022/01/23 03:30:38;;;;;;;5.20;4.80;;;;;;;;;;6068949;29;20237;-63
2022/01/23 03:33:59;;;;;;;5.63;5.13;;;;;;;;;;6068263;29;20813;-64
2022/01/23 03:37:20;;;;;;;4.97;4.57;;;;;;;;;;6072847;29;20237;-64
2022/01/23 03:40:41;;;;;;;6.67;4.90;;;;;;;;;;6062947;29;20237;-63
2022/01/23 03:44:03;;;;;;;6.60;6.03;;;;;;;;;;6075421;29;20248;-64
2022/01/23 03:47:36;;;;;;;5.80;5.30;;;;;;;;;;6095651;29;20876;-63
2022/01/23 03:50:57;;;;;;;7.57;6.20;;;;;;;;;;6098538;28;20240;-64
2022/01/23 03:54:33;;;;;;;7.30;6.30;;;;;;;;;;6083786;28;20236;-63
2022/01/23 03:57:53;;;;;;;6.70;6.10;;;;;;;;;;6083038;29;20236;-63
2022/01/23 04:01:14;;;;;;;7.37;6.67;;;;;;;;;;6087741;29;20241;-63
2022/01/23 04:04:39;;;;;;;8.17;7.30;;;;;;;;;;6088126;29;20237;-64
2022/01/23 04:08:03;;;;;;;6.80;6.10;;;;;;;;;;6102831;29;20245;-65
2022/01/23 04:11:24;;;;;;;6.50;5.90;;;;;;;;;;6100636;29;20768;-64
2022/01/23 04:14:51;;;;;;;6.23;5.63;;;;;;;;;;6094811;29;20244;-64
2022/01/23 04:19:06;;;;;;;7.60;6.90;;;;;;;;;;6063780;29;20229;-64
2022/01/23 04:33:47;;;;;;;6.20;5.60;;;;;;;;;;6097295;28;20667;-66
2022/01/23 05:03:33;;;;;;;7.50;6.80;;;;;;;;;;6081326;29;20236;-64
2022/01/23 05:07:03;;;;;;;9.03;8.07;;;;;;;;;;6083428;29;20229;-65
2022/01/23 05:10:45;;;;;;;9.10;8.20;;;;;;;;;;6080873;29;20233;-63
2022/01/23 05:14:30;;;;;;;7.93;7.10;;;;;;;;;;6083175;29;20231;-63
2022/01/23 05:17:52;;;;;;;9.83;8.93;;;;;;;;;;6075944;29;20285;-63
2022/01/23 05:21:36;;;;;;;10.10;9.17;;;;;;;;;;6073765;29;20233;-65
2022/01/23 05:25:01;;;;;;;10.87;9.00;;;;;;;;;;6068060;29;20678;-64
2022/01/23 05:28:22;;;;;;;8.33;7.53;;;;;;;;;;6074622;29;20639;-63
2022/01/23 05:31:43;;;;;;;9.17;8.40;;;;;;;;;;6077478;29;20533;-65
2022/01/23 05:35:07;;;;;;;8.70;7.90;;;;;;;;;;6063213;29;20313;-63
2022/01/23 05:38:28;;;;;;;7.90;7.10;;;;;;;;;;6088587;29;20237;-64
2022/01/23 05:41:52;;;;;;;8.33;7.53;;;;;;;;;;6086246;29;21029;-64
2022/01/23 05:45:13;;;;;;;7.70;6.90;;;;;;;;;;6083364;29;20245;-66
2022/01/23 05:49:06;;;;;;;11.73;8.10;;;;;;;;;;6068603;29;20237;-64
2022/01/23 05:52:34;;;;;;;9.07;6.63;;;;;;;;;;6078085;28;20898;-63
2022/01/23 05:56:26;;;;;;;10.53;6.70;;;;;;;;;;6082713;29;20236;-64
2022/01/23 05:59:47;;;;;;;7.83;6.87;;;;;;;;;;6082582;29;20237;-63
2022/01/23 06:03:07;;;;;;;8.80;7.63;;;;;;;;;;6083930;28;20241;-63
2022/01/23 06:06:41;;;;;;;7.60;6.83;;;;;;;;;;6097567;29;20256;-63
2022/01/23 06:10:03;;;;;;;14.57;6.80;;;;;;;;;;6062426;29;20623;-64
2022/01/23 06:13:26;;;;;;;7.03;6.10;;;;;;;;;;6068905;29;20240;-63
2022/01/23 06:16:47;;;;;;;8.00;7.20;;;;;;;;;;6084323;29;20229;-64
2022/01/23 06:20:26;;;;;;;9.87;7.17;;;;;;;;;;6083411;29;20919;-64
2022/01/23 06:24:08;;;;;;;8.63;7.10;;;;;;;;;;6074670;29;20241;-63
2022/01/23 06:27:43;;;;;;;9.97;7.00;;;;;;;;;;6081654;29;20474;-63
2022/01/23 06:31:04;;;;;;;6.90;6.17;;;;;;;;;;6081343;29;20244;-64
2022/01/23 06:34:25;;;;;;;11.50;7.17;;;;;;;;;;6087516;29;20229;-64
2022/01/23 06:37:45;;;;;;;10.77;7.87;;;;;;;;;;6090986;29;20855;-65
2022/01/23 06:41:06;;;;;;;18.13;8.90;;;;;;;;;;6084467;29;20233;-64
2022/01/23 06:44:41;;;;;;;12.60;7.43;;;;;;;;;;6076896;29;20232;-64
2022/01/23 06:48:10;;;;;;;8.43;7.10;;;;;;;;;;6095388;28;20511;-63
2022/01/23 06:51:31;;;;;;;7.07;5.93;;;;;;;;;;6092537;29;20232;-64
2022/01/23 06:54:52;;;;;;;8.80;7.33;;;;;;;;;;6073742;28;20228;-64
2022/01/23 06:58:12;;;;;;;9.60;7.07;;;;;;;;;;6096044;29;20377;-63
2022/01/23 07:01:34;;;;;;;6.43;5.77;;;;;;;;;;6087078;29;20729;-63
2022/01/23 07:05:24;;;;;;;10.40;6.17;;;;;;;;;;6061615;28;20621;-64
2022/01/23 07:08:52;;;;;;;8.07;7.23;;;;;;;;;;6069635;29;20237;-63
2022/01/23 07:12:30;;;;;;;9.00;7.50;;;;;;;;;;6090722;29;20591;-65
2022/01/23 07:15:54;;;;;;;8.43;7.27;;;;;;;;;;6097224;29;20232;-64
2022/01/23 07:19:36;;;;;;;9.60;8.60;;;;;;;;;;6095545;28;20248;-64
2022/01/23 07:22:58;;;;;;;9.30;8.37;;;;;;;;;;6100739;28;20237;-63
2022/01/23 07:26:21;;;;;;;10.60;9.03;;;;;;;;;;6099912;28;20236;-65
2022/01/23 07:29:46;;;;;;;11.27;8.43;;;;;;;;;;6092813;28;20236;-64
2022/01/23 07:33:07;;;;;;;14.93;8.53;;;;;;;;;;6084538;28;20240;-64
2022/01/23 07:36:29;;;;;;;9.87;7.40;;;;;;;;;;6081653;29;20324;-64
2022/01/23 07:39:50;;;;;;;10.23;8.20;;;;;;;;;;6084324;29;22443;-65
2022/01/23 07:43:18;;;;;;;10.57;9.00;;;;;;;;;;6085445;29;20228;-64
2022/01/23 07:46:57;;;;;;;10.67;6.97;;;;;;;;;;6080872;28;20232;-64
2022/01/23 07:50:29;;;;;;;8.73;7.10;;;;;;;;;;6099680;29;20236;-64
2022/01/23 07:54:07;;;;;;;12.23;7.80;;;;;;;;;;6100992;29;20252;-64
2022/01/23 07:57:36;;;;;;;14.30;7.60;;;;;;;;;;6077423;28;20260;-64
2022/01/23 08:01:15;;;;;;;7.17;6.47;;;;;;;;;;6096573;29;20240;-64
2022/01/23 08:04:55;;;;;;;7.87;6.70;;;;;;;;;;6087488;29;20524;-64
2022/01/23 08:08:16;;;;;;;12.13;7.50;;;;;;;;;;6085502;28;20321;-63
2022/01/23 08:12:00;;;;;;;11.80;7.97;;;;;;;;;;6081403;28;20240;-64
2022/01/23 08:15:21;;;;;;;9.23;7.17;;;;;;;;;;6085862;29;20228;-63
2022/01/23 08:18:42;;;;;;;8.43;6.83;;;;;;;;;;6085205;28;20231;-64
2022/01/23 08:22:02;;;;;;;7.77;6.97;;;;;;;;;;6091083;28;20233;-65
2022/01/23 08:25:23;;;;;;;6.97;6.17;;;;;;;;;;6087300;29;20232;-62
2022/01/23 08:28:45;;;;;;;6.93;5.40;;;;;;;;;;6086206;29;20235;-64
2022/01/23 08:32:06;;;;;;;7.27;6.20;;;;;;;;;;6086741;29;20244;-64
2022/01/23 08:35:28;;;;;;;8.67;6.77;;;;;;;;;;6088410;29;20224;-64
2022/01/23 08:38:48;;;;;;;8.30;6.13;;;;;;;;;;6089223;28;20236;-64
2022/01/23 08:42:10;;;;;;;13.20;7.73;;;;;;;;;;6079646;29;20323;-62
2022/01/23 08:45:32;;;;;;;20.50;16.23;;;;;;;;;;6083199;28;20630;-64
2022/01/23 08:48:53;;;;;;;18.60;17.00;;;;;;;;;;6086624;29;20236;-64
2022/01/23 08:52:16;;;;;;;384.03;352.67;;;;;;;;;;6088316;28;20240;-65
2022/01/23 08:55:37;;;;;;;162.03;145.77;;;;;;;;;;6084109;29;20236;-64
2022/01/23 08:58:58;;;;;;;122.27;109.60;;;;;;;;;;6091466;29;23213;-61
2022/01/23 09:02:20;;;;;;;84.30;75.23;;;;;;;;;;6089158;28;20244;-62
2022/01/23 09:05:41;;;;;;;45.43;39.47;;;;;;;;;;6085074;29;20244;-62
2022/01/23 09:09:04;;;;;;;81.90;73.97;;;;;;;;;;6095871;29;20344;-63
2022/01/23 09:12:41;;;;;;;34.50;31.33;;;;;;;;;;6091952;29;20252;-64
2022/01/23 09:16:02;;;;;;;13.20;8.67;;;;;;;;;;6091150;28;20228;-64
2022/01/23 09:19:25;;;;;;;10.07;6.77;;;;;;;;;;6090991;28;20320;-63
2022/01/23 09:22:45;;;;;;;12.63;7.23;;;;;;;;;;6090411;29;20232;-63
2022/01/23 09:26:08;;;;;;;16.57;8.53;;;;;;;;;;6092444;29;20236;-63
2022/01/23 09:29:33;;;;;;;15.13;7.10;;;;;;;;;;6096606;28;20256;-63
2022/01/23 09:32:53;;;;;;;15.23;8.33;;;;;;;;;;6096876;29;20236;-64
2022/01/23 09:36:15;;;;;;;14.43;8.27;;;;;;;;;;6092803;29;20244;-63
2022/01/23 09:39:37;;;;;;;12.10;8.77;;;;;;;;;;6097406;29;20248;-63
2022/01/23 09:42:59;;;;;;;10.23;7.53;;;;;;;;;;6093227;28;20224;-64
2022/01/23 09:46:20;;;;;;;13.10;8.30;;;;;;;;;;6093940;28;20319;-63
2022/01/23 09:49:41;;;;;;;11.87;8.87;;;;;;;;;;6093626;29;20228;-63
2022/01/23 09:53:03;;;;;;;12.93;8.80;;;;;;;;;;6094596;29;20248;-65
2022/01/23 09:56:27;;;;;;;10.50;7.30;;;;;;;;;;6072979;29;20253;-65
2022/01/23 09:59:48;;;;;;;11.80;6.60;;;;;;;;;;6078827;29;20808;-63
2022/01/23 10:03:09;;;;;;;9.93;7.40;;;;;;;;;;6091657;29;20232;-65
2022/01/23 10:06:30;;;;;;;8.37;5.90;;;;;;;;;;6068094;29;20241;-62
2022/01/23 10:09:56;;;;;;;14.10;6.93;;;;;;;;;;6068981;29;20236;-64
2022/01/23 10:13:17;;;;;;;11.37;7.07;;;;;;;;;;6094847;28;20338;-63
2022/01/23 10:16:38;;;;;;;10.03;6.63;;;;;;;;;;6093323;29;20241;-64
2022/01/23 10:19:59;;;;;;;11.50;7.97;;;;;;;;;;6090817;28;20244;-63
2022/01/23 10:23:19;;;;;;;8.07;6.17;;;;;;;;;;6092881;29;20237;-63
2022/01/23 10:26:46;;;;;;;16.30;7.93;;;;;;;;;;6092160;28;20220;-64
2022/01/23 10:30:17;;;;;;;14.67;7.80;;;;;;;;;;6084508;29;20504;-65
2022/01/23 10:33:38;;;;;;;13.27;8.63;;;;;;;;;;6068192;29;20235;-63
2022/01/23 10:36:59;;;;;;;11.57;8.33;;;;;;;;;;6086022;29;20237;-65
2022/01/23 10:40:25;;;;;;;18.13;8.33;;;;;;;;;;6083055;28;20229;-64
2022/01/23 10:47:30;;;;;;;15.67;8.07;;;;;;;;;;6309063;27;21336;-64
2022/01/23 10:50:51;;;;;;;10.83;7.47;;;;;;;;;;6288286;28;20230;-65
2022/01/23 10:54:13;;;;;;;15.77;8.20;;;;;;;;;;6267841;28;20223;-65
2022/01/23 10:57:34;;;;;;;14.90;7.80;;;;;;;;;;6275217;28;20240;-64
2022/01/23 11:01:06;;;;;;;11.73;6.90;;;;;;;;;;6271292;28;20223;-64
2022/01/23 11:04:28;;;;;;;12.90;8.23;;;;;;;;;;6275236;28;20216;-64
2022/01/23 11:07:49;;;;;;;12.50;7.57;;;;;;;;;;6273501;28;20500;-66
2022/01/23 11:11:10;;;;;;;12.63;6.40;;;;;;;;;;6273822;28;20622;-65
2022/01/23 11:18:10;;;;;;;14.27;10.73;;;;;;;;;;6268821;28;20227;-65
2022/01/23 11:21:31;;;;;;;11.00;7.53;;;;;;;;;;6268623;28;20243;-65
2022/01/23 11:24:52;;;;;;;13.00;7.97;;;;;;;;;;6267839;28;20327;-65
2022/01/23 11:28:13;;;;;;;17.67;7.50;;;;;;;;;;6273315;28;20228;-65
2022/01/23 11:31:35;;;;;;;12.17;6.93;;;;;;;;;;6278666;28;20250;-64
2022/01/23 11:35:00;;;;;;;13.20;6.07;;;;;;;;;;6282068;28;20864;-65
2022/01/23 11:38:24;;;;;;;9.73;5.43;;;;;;;;;;6279675;28;20639;-65
2022/01/23 11:56:38;;;;;;;6.60;3.90;;;;;;;;;;6252924;28;20256;-64
2022/01/23 12:00:11;;;;;;;7.37;4.57;;;;;;;;;;6270461;28;20236;-64
2022/01/23 12:03:34;;;;;;;5.27;4.43;;;;;;;;;;6233618;28;20716;-64
2022/01/23 12:07:20;;;;;;;7.40;3.67;;;;;;;;;;6239552;28;20240;-64
2022/01/23 12:10:52;;;;;;;6.17;3.67;;;;;;;;;;6237245;28;20224;-64
2022/01/23 12:18:11;;;;;;;5.43;3.00;;;;;;;;;;6247480;28;20232;-65
2022/01/23 12:21:32;;;;;;;7.07;2.90;;;;;;;;;;6249787;28;20224;-64
2022/01/23 12:24:54;;;;;;;4.70;3.27;;;;;;;;;;6249306;28;20844;-64
2022/01/23 12:28:17;;;;;;;12.07;3.77;;;;;;;;;;6236832;28;20228;-67
2022/01/23 14:04:51;;;;;;;4.57;2.27;;;;;;;;;;5934620;29;20240;-65
2022/01/23 14:08:14;;;;;;;3.30;2.10;;;;;;;;;;5971131;29;20747;-65
2022/01/23 14:11:34;;;;;;;2.83;1.60;;;;;;;;;;5973036;29;20272;-64
2022/01/23 14:14:56;;;;;;;3.10;2.80;;;;;;;;;;5972729;29;20236;-65
2022/01/23 14:18:19;;;;;;;2.33;1.53;;;;;;;;;;5965892;29;20231;-65
2022/01/23 14:21:42;;;;;;;3.60;1.53;;;;;;;;;;5971459;29;20323;-64
2022/01/23 14:25:14;;;;;;;3.47;3.17;;;;;;;;;;5969710;29;20264;-64
2022/01/23 14:28:38;;;;;;;2.00;1.60;;;;;;;;;;5981854;29;20239;-63
2022/01/23 14:32:11;;;;;;;3.20;2.33;;;;;;;;;;5973135;29;20319;-63
2022/01/23 14:35:32;;;;;;;3.73;3.03;;;;;;;;;;5969218;29;20314;-64
2022/01/23 14:38:56;;;;;;;5.93;2.07;;;;;;;;;;5973754;29;20686;-65
2022/01/23 14:42:18;;;;;;;2.70;1.73;;;;;;;;;;5972926;29;20237;-66
2022/01/23 14:45:40;;;;;;;2.97;1.70;;;;;;;;;;5975810;29;20236;-66
2022/01/23 14:49:09;;;;;;;1.83;1.10;;;;;;;;;;5976603;29;20276;-63
2022/01/23 14:52:31;;;;;;;2.60;1.70;;;;;;;;;;5975667;29;20235;-64
2022/01/23 14:55:54;;;;;;;3.77;2.67;;;;;;;;;;5977999;29;20236;-63
2022/01/23 14:59:15;;;;;;;3.20;2.43;;;;;;;;;;5976937;29;20232;-63
2022/01/23 15:02:36;;;;;;;4.50;2.33;;;;;;;;;;5980615;29;20240;-64
2022/01/23 15:05:56;;;;;;;3.57;1.77;;;;;;;;;;5971405;29;20243;-64
2022/01/23 15:09:18;;;;;;;4.83;1.57;;;;;;;;;;5976570;29;20231;-63
2022/01/23 15:12:40;;;;;;;6.20;2.40;;;;;;;;;;5972250;29;20235;-64
2022/01/23 15:16:01;;;;;;;5.27;2.27;;;;;;;;;;5970679;29;20326;-64
2022/01/23 15:19:22;;;;;;;2.13;1.93;;;;;;;;;;5974752;29;20232;-63
2022/01/23 15:22:43;;;;;;;3.73;1.93;;;;;;;;;;5971274;29;20505;-64
2022/01/23 15:26:03;;;;;;;2.73;2.03;;;;;;;;;;5973819;29;20243;-64
2022/01/23 15:29:25;;;;;;;2.90;2.23;;;;;;;;;;5974831;29;20808;-64
2022/01/23 15:32:46;;;;;;;5.03;1.87;;;;;;;;;;5977948;29;20240;-63
2022/01/23 15:36:06;;;;;;;3.03;1.53;;;;;;;;;;5980023;29;20601;-62
2022/01/23 15:39:28;;;;;;;2.73;1.33;;;;;;;;;;5980100;29;20255;-62
2022/01/23 15:42:50;;;;;;;2.80;1.40;;;;;;;;;;5984311;29;20236;-63
2022/01/23 15:46:13;;;;;;;1.60;1.50;;;;;;;;;;5975974;29;20619;-63
2022/01/23 15:49:33;;;;;;;4.77;2.93;;;;;;;;;;5981088;29;20236;-63
2022/01/23 15:52:54;;;;;;;4.57;2.03;;;;;;;;;;5978074;29;20231;-63
2022/01/23 15:56:15;;;;;;;3.17;2.87;;;;;;;;;;5977319;29;20335;-63
2022/01/23 15:59:36;;;;;;;4.33;1.97;;;;;;;;;;5967535;29;20235;-64
2022/01/23 16:02:58;;;;;;;2.80;1.90;;;;;;;;;;5971191;29;20243;-63
2022/01/23 16:06:18;;;;;;;2.53;1.73;;;;;;;;;;5974034;29;20240;-64
2022/01/23 16:09:39;;;;;;;2.20;1.30;;;;;;;;;;5973914;29;20243;-63
2022/01/23 16:13:00;;;;;;;2.67;1.90;;;;;;;;;;5965603;29;20248;-62
2022/01/23 16:16:20;;;;;;;2.40;2.20;;;;;;;;;;5972538;29;20240;-63
2022/01/23 16:19:42;;;;;;;3.33;1.53;;;;;;;;;;5979597;29;20247;-62
2022/01/23 16:23:03;;;;;;;2.37;1.57;;;;;;;;;;5978085;29;20243;-64
2022/01/23 16:26:25;;;;;;;1.87;1.33;;;;;;;;;;5979115;29;20232;-64
2022/01/23 16:29:46;;;;;;;4.87;2.10;;;;;;;;;;5968303;29;20285;-63
2022/01/23 16:33:07;;;;;;;6.63;4.97;;;;;;;;;;5975933;29;20729;-64
2022/01/23 16:36:31;;;;;;;2.37;2.13;;;;;;;;;;5977536;29;20308;-63
2022/01/23 16:39:52;;;;;;;6.60;2.77;;;;;;;;;;5967451;29;20245;-63
2022/01/23 16:43:14;;;;;;;2.50;1.90;;;;;;;;;;5976711;29;20240;-64
2022/01/23 16:46:37;;;;;;;2.33;2.13;;;;;;;;;;5980451;29;20239;-63
2022/01/23 16:49:57;;;;;;;5.47;2.10;;;;;;;;;;5976307;29;20236;-64
2022/01/23 16:53:19;;;;;;;6.17;2.47;;;;;;;;;;5978882;29;20251;-64
2022/01/23 16:56:40;;;;;;;3.97;2.00;;;;;;;;;;5974929;29;20247;-63
2022/01/23 17:00:02;;;;;;;4.57;2.43;;;;;;;;;;5975386;29;20235;-63
2022/01/23 17:03:23;;;;;;;2.43;2.10;;;;;;;;;;5975176;29;20232;-65
2022/01/23 17:06:43;;;;;;;3.50;2.10;;;;;;;;;;5978550;29;20247;-64
2022/01/23 17:10:07;;;;;;;2.83;2.33;;;;;;;;;;5975390;29;22456;-64
2022/01/23 17:13:27;;;;;;;4.17;3.37;;;;;;;;;;5970120;29;20326;-64
2022/01/23 17:16:48;;;;;;;2.87;2.57;;;;;;;;;;5970647;29;20243;-62
2022/01/23 17:20:09;;;;;;;6.77;3.07;;;;;;;;;;5973555;29;20611;-63
2022/01/23 17:23:29;;;;;;;4.13;3.30;;;;;;;;;;5970237;29;20240;-64
2022/01/23 17:26:51;;;;;;;2.40;2.20;;;;;;;;;;5968243;29;20311;-64
2022/01/23 17:30:13;;;;;;;3.03;2.37;;;;;;;;;;5977320;29;20231;-63
2022/01/23 17:33:33;;;;;;;4.00;2.90;;;;;;;;;;5977145;29;20515;-64
2022/01/23 17:36:54;;;;;;;5.77;3.73;;;;;;;;;;5977295;29;20232;-64
2022/01/23 17:40:15;;;;;;;5.27;3.80;;;;;;;;;;5979388;29;20269;-69
2022/01/23 17:43:37;;;;;;;6.87;3.33;;;;;;;;;;5970264;29;20244;-64
2022/01/23 17:47:07;;;;;;;6.83;2.97;;;;;;;;;;5976650;29;20330;-64
2022/01/23 17:50:31;;;;;;;5.57;3.07;;;;;;;;;;5973078;29;20534;-67
2022/01/23 17:53:53;;;;;;;4.13;3.33;;;;;;;;;;5972614;29;20236;-64
2022/01/23 17:57:13;;;;;;;5.63;3.20;;;;;;;;;;5976442;29;20231;-64
2022/01/23 18:00:37;;;;;;;5.87;4.03;;;;;;;;;;5978432;29;20236;-62
2022/01/23 18:03:59;;;;;;;6.00;2.53;;;;;;;;;;5976613;29;20228;-63
2022/01/23 18:07:19;;;;;;;5.07;3.20;;;;;;;;;;5972661;29;20236;-62
2022/01/23 18:10:40;;;;;;;6.07;3.37;;;;;;;;;;5978495;29;20595;-63
2022/01/23 18:14:07;;;;;;;5.00;3.23;;;;;;;;;;5975092;29;20232;-63
2022/01/23 18:17:30;;;;;;;3.43;3.13;;;;;;;;;;5968393;29;20240;-64
2022/01/23 18:20:50;;;;;;;4.80;2.70;;;;;;;;;;5972808;29;20243;-64
2022/01/23 18:24:11;;;;;;;5.17;3.10;;;;;;;;;;5969022;29;20228;-65
2022/01/23 18:27:31;;;;;;;3.47;3.03;;;;;;;;;;5976672;29;20244;-63
2022/01/23 18:30:52;;;;;;;2.60;2.40;;;;;;;;;;5975763;29;20852;-64
2022/01/23 18:34:14;;;;;;;5.70;3.47;;;;;;;;;;5974280;29;20566;-64
2022/01/23 18:37:35;;;;;;;2.93;2.60;;;;;;;;;;5970543;29;20339;-62
2022/01/23 18:40:55;;;;;;;3.10;2.80;;;;;;;;;;5988681;29;20232;-63
2022/01/23 18:44:16;;;;;;;4.43;3.10;;;;;;;;;;5971601;29;20263;-62
2022/01/23 18:47:37;;;;;;;4.73;2.97;;;;;;;;;;5976508;29;20616;-64
2022/01/23 18:51:00;;;;;;;5.93;3.90;;;;;;;;;;5970010;29;20228;-63
2022/01/23 18:54:29;;;;;;;4.63;3.60;;;;;;;;;;5979948;29;20564;-63
2022/01/23 18:58:01;;;;;;;4.57;3.53;;;;;;;;;;5974418;29;20235;-63
2022/01/23 19:01:22;;;;;;;5.60;3.93;;;;;;;;;;5974726;29;20235;-64
2022/01/23 19:04:48;;;;;;;4.37;3.97;;;;;;;;;;5972636;29;20264;-65
2022/01/23 19:08:13;;;;;;;4.90;4.47;;;;;;;;;;5976681;29;20243;-63
2022/01/23 19:11:34;;;;;;;5.40;4.87;;;;;;;;;;5979585;29;20227;-63
2022/01/23 19:14:54;;;;;;;5.73;5.13;;;;;;;;;;5980406;29;20248;-64
2022/01/23 19:18:15;;;;;;;5.97;5.37;;;;;;;;;;5973599;29;20247;-63
2022/01/23 19:21:35;;;;;;;6.37;5.73;;;;;;;;;;5984791;29;21079;-63
2022/01/23 19:24:57;;;;;;;5.90;5.27;;;;;;;;;;5979254;29;20330;-62
2022/01/23 19:28:17;;;;;;;6.13;5.37;;;;;;;;;;5979923;29;20235;-63
2022/01/23 19:31:38;;;;;;;6.87;5.80;;;;;;;;;;5978424;29;20240;-63
2022/01/23 19:34:59;;;;;;;6.73;5.10;;;;;;;;;;5972048;29;20512;-64
2022/01/23 19:38:20;;;;;;;6.03;5.53;;;;;;;;;;5972765;29;20236;-62
2022/01/23 19:41:46;;;;;;;7.57;5.70;;;;;;;;;;5986460;29;20252;-63
2022/01/23 19:45:07;;;;;;;6.33;5.83;;;;;;;;;;5980762;29;20696;-63
2022/01/23 19:48:32;;;;;;;6.17;5.57;;;;;;;;;;5978838;29;20590;-64
2022/01/23 19:51:53;;;;;;;7.87;6.43;;;;;;;;;;5979262;29;20243;-63
2022/01/23 19:55:13;;;;;;;6.40;5.90;;;;;;;;;;5978884;29;20810;-64
2022/01/23 19:58:35;;;;;;;7.53;6.93;;;;;;;;;;5978971;29;20537;-63
2022/01/23 20:01:56;;;;;;;6.63;6.10;;;;;;;;;;5974971;29;20236;-66
2022/01/23 20:05:16;;;;;;;6.90;6.30;;;;;;;;;;5981553;29;20239;-63
2022/01/23 20:08:37;;;;;;;6.23;5.73;;;;;;;;;;5976897;29;20248;-64
2022/01/23 20:15:39;;;;;;;5.73;5.23;;;;;;;;;;5977548;29;20610;-64
2022/01/23 20:19:00;;;;;;;5.90;5.43;;;;;;;;;;5975483;29;20235;-65
2022/01/23 20:22:22;;;;;;;6.73;6.13;;;;;;;;;;5976923;29;20236;-64
2022/01/23 20:25:43;;;;;;;5.87;5.27;;;;;;;;;;5986326;29;20235;-64
2022/01/23 20:29:03;;;;;;;6.40;5.87;;;;;;;;;;5982276;29;20236;-65
2022/01/23 20:32:25;;;;;;;6.20;5.77;;;;;;;;;;5983580;29;20236;-64
2022/01/23 20:35:46;;;;;;;6.00;5.53;;;;;;;;;;5981030;29;20515;-64
2022/01/23 20:39:06;;;;;;;6.63;6.03;;;;;;;;;;5968833;29;21061;-64
2022/01/23 20:42:27;;;;;;;7.73;5.63;;;;;;;;;;5983059;29;20244;-63
2022/01/23 20:45:47;;;;;;;6.63;6.03;;;;;;;;;;5980787;29;20240;-63
2022/01/23 20:49:10;;;;;;;5.93;5.43;;;;;;;;;;5975774;29;20235;-63
2022/01/23 20:52:37;;;;;;;6.93;6.33;;;;;;;;;;5981013;29;20243;-63
2022/01/23 20:55:58;;;;;;;7.40;5.87;;;;;;;;;;5979601;29;20235;-64
2022/01/23 20:59:18;;;;;;;7.07;6.57;;;;;;;;;;5978231;29;20239;-63
2022/01/23 21:02:41;;;;;;;7.90;6.47;;;;;;;;;;5975811;29;20804;-63
2022/01/23 21:06:03;;;;;;;6.40;5.43;;;;;;;;;;5983280;29;20243;-63
2022/01/23 21:09:23;;;;;;;6.30;5.70;;;;;;;;;;5973846;29;20517;-62
2022/01/23 21:12:44;;;;;;;6.43;5.93;;;;;;;;;;5980387;29;20661;-62
2022/01/23 21:20:08;;;;;;;5.77;5.10;;;;;;;;;;5984194;29;20235;-62
2022/01/23 21:28:28;;;;;;;5.70;5.20;;;;;;;;;;5974286;29;20243;-62
2022/01/23 21:31:57;;;;;;;6.53;5.93;;;;;;;;;;5974926;29;20752;-63
2022/01/23 21:42:06;;;;;;;7.13;6.53;;;;;;;;;;5968728;29;20231;-62
2022/01/23 21:45:27;;;;;;;6.67;6.07;;;;;;;;;;5966789;29;20525;-63
2022/01/23 21:48:48;;;;;;;5.90;5.30;;;;;;;;;;5965956;29;20615;-63
2022/01/23 21:52:10;;;;;;;8.07;6.87;;;;;;;;;;5975985;29;20334;-62
2022/01/23 21:55:31;;;;;;;11.97;10.13;;;;;;;;;;5974062;29;20358;-63
2022/01/23 21:58:53;;;;;;;13.27;8.93;;;;;;;;;;5977305;29;20244;-62
2022/01/23 22:02:14;;;;;;;9.83;8.77;;;;;;;;;;5972310;29;20240;-63
2022/01/23 22:05:35;;;;;;;9.57;8.57;;;;;;;;;;5969886;29;20429;-63
2022/01/23 22:09:02;;;;;;;21.67;15.97;;;;;;;;;;5973250;29;20237;-62
2022/01/23 22:12:58;;;;;;;12.27;9.80;;;;;;;;;;5976046;29;20267;-62
2022/01/23 22:16:19;;;;;;;13.13;10.83;;;;;;;;;;5965768;29;20614;-62
2022/01/23 22:19:40;;;;;;;8.43;7.63;;;;;;;;;;5977572;29;20240;-64
2022/01/23 22:23:14;;;;;;;9.23;8.43;;;;;;;;;;5975834;29;20247;-63
2022/01/23 22:26:45;;;;;;;10.53;8.40;;;;;;;;;;5977371;29;20606;-62
2022/01/23 22:30:06;;;;;;;7.27;6.50;;;;;;;;;;5981292;29;20239;-63
2022/01/23 22:33:28;;;;;;;7.67;5.83;;;;;;;;;;5974024;29;20244;-63
2022/01/23 22:36:49;;;;;;;7.77;7.07;;;;;;;;;;5967437;29;20334;-61
2022/01/23 22:40:10;;;;;;;8.67;7.87;;;;;;;;;;5980059;29;20614;-61
2022/01/23 22:43:32;;;;;;;7.07;5.80;;;;;;;;;;5974336;29;20609;-63
2022/01/23 22:46:53;;;;;;;7.93;7.13;;;;;;;;;;5976696;29;20243;-63
2022/01/23 22:50:15;;;;;;;6.03;5.53;;;;;;;;;;5983373;29;20239;-62
2022/01/23 22:53:35;;;;;;;6.73;6.13;;;;;;;;;;5968017;29;20248;-63
2022/01/23 22:56:56;;;;;;;11.73;6.83;;;;;;;;;;5971865;29;20239;-63
2022/01/23 23:00:32;;;;;;;7.17;6.53;;;;;;;;;;5967256;29;20243;-64
2022/01/23 23:03:53;;;;;;;7.90;6.93;;;;;;;;;;5974926;29;20251;-63
2022/01/23 23:07:14;;;;;;;7.20;6.50;;;;;;;;;;5972578;29;20235;-63
2022/01/23 23:10:37;;;;;;;8.33;6.27;;;;;;;;;;5971044;29;20228;-64
2022/01/23 23:13:58;;;;;;;8.60;7.80;;;;;;;;;;5969367;29;20240;-63
2022/01/23 23:17:20;;;;;;;6.80;6.20;;;;;;;;;;5975168;29;20368;-63
2022/01/23 23:20:42;;;;;;;7.63;6.97;;;;;;;;;;5973047;29;20606;-64
2022/01/23 23:24:05;;;;;;;6.77;5.70;;;;;;;;;;5971654;29;20291;-63
2022/01/23 23:27:26;;;;;;;6.47;5.90;;;;;;;;;;5973782;29;20248;-64
2022/01/23 23:30:46;;;;;;;6.30;5.77;;;;;;;;;;5974786;29;20634;-63
2022/01/23 23:34:07;;;;;;;6.77;6.27;;;;;;;;;;5971736;29;20243;-64
2022/01/23 23:37:28;;;;;;;6.07;5.57;;;;;;;;;;5979043;29;20244;-64
2022/01/23 23:41:00;;;;;;;7.80;7.20;;;;;;;;;;5976978;29;20257;-63
2022/01/23 23:44:25;;;;;;;7.33;6.63;;;;;;;;;;5975900;29;20235;-62
2022/01/23 23:47:45;;;;;;;6.43;5.93;;;;;;;;;;5967212;29;20245;-63
2022/01/23 23:51:06;;;;;;;7.20;6.50;;;;;;;;;;5978754;29;20240;-64
2022/01/23 23:54:26;;;;;;;6.83;6.23;;;;;;;;;;5976116;29;20294;-63
2022/01/23 23:57:50;;;;;;;6.13;5.53;;;;;;;;;;5983392;29;20240;-64
